createdAt,value
2023-05-29T00:00:29.736Z,1130.00
2023-05-29T00:01:29.639Z,1127.00
2023-05-29T00:02:29.735Z,1181.00
2023-05-29T00:03:29.859Z,1196.00
2023-05-29T00:04:29.785Z,1188.00
2023-05-29T00:05:29.825Z,1194.00
2023-05-29T00:06:29.837Z,1143.00
2023-05-29T00:07:29.860Z,1188.00
2023-05-29T00:08:29.875Z,1183.00
2023-05-29T00:09:29.883Z,1167.00
2023-05-29T00:10:29.902Z,1165.00
2023-05-29T00:11:29.916Z,1168.00
2023-05-29T00:12:29.986Z,1196.00
2023-05-29T00:13:30.097Z,1208.00
2023-05-29T00:14:30.156Z,1126.00
2023-05-29T00:15:30.270Z,1175.00
2023-05-29T00:16:30.357Z,1214.00
2023-05-29T00:17:30.429Z,1228.00
2023-05-29T00:18:30.535Z,1204.00
2023-05-29T00:19:30.519Z,1179.00
2023-05-29T00:20:30.537Z,1164.00
2023-05-29T00:21:30.590Z,1132.00
2023-05-29T00:22:30.560Z,1100.00
2023-05-29T00:23:30.565Z,1044.00
2023-05-29T00:24:30.592Z,1033.00
2023-05-29T00:25:30.658Z,1008.00
2023-05-29T00:26:30.674Z,955.00
2023-05-29T00:27:30.674Z,970.00
2023-05-29T00:28:30.673Z,960.00
2023-05-29T00:29:30.710Z,968.00
2023-05-29T00:30:30.689Z,975.00
2023-05-29T00:31:30.735Z,975.00
2023-05-29T00:32:30.859Z,936.00
2023-05-29T00:33:30.881Z,955.00
2023-05-29T00:34:30.977Z,981.00
2023-05-29T00:35:31.061Z,946.00
2023-05-29T00:36:31.065Z,905.00
2023-05-29T00:37:31.111Z,898.00
2023-05-29T00:38:31.054Z,896.00
2023-05-29T00:39:31.060Z,907.00
2023-05-29T00:40:31.067Z,931.00
2023-05-29T00:41:31.136Z,927.00
2023-05-29T00:42:31.108Z,924.00
2023-05-29T00:43:31.142Z,882.00
2023-05-29T00:44:31.126Z,856.00
2023-05-29T00:45:31.128Z,837.00
2023-05-29T00:46:31.178Z,866.00
2023-05-29T00:47:31.209Z,840.00
2023-05-29T00:48:31.240Z,856.00
2023-05-29T00:49:31.258Z,852.00
2023-05-29T00:50:31.258Z,851.00
2023-05-29T00:51:31.242Z,858.00
2023-05-29T00:52:31.260Z,873.00
2023-05-29T00:53:31.267Z,854.00
2023-05-29T00:54:31.292Z,864.00
2023-05-29T00:55:31.294Z,846.00
2023-05-29T00:56:31.297Z,878.00
2023-05-29T00:57:31.296Z,866.00
2023-05-29T00:58:31.299Z,895.00
2023-05-29T00:59:31.293Z,884.00
2023-05-29T01:00:31.373Z,872.00
2023-05-29T01:01:31.481Z,849.00
2023-05-29T01:02:31.551Z,837.00
2023-05-29T01:03:31.725Z,850.00
2023-05-29T01:04:31.472Z,857.00
2023-05-29T01:05:31.474Z,864.00
2023-05-29T01:06:31.470Z,878.00
2023-05-29T01:07:31.484Z,898.00
2023-05-29T01:08:31.466Z,910.00
2023-05-29T01:09:31.549Z,915.00
2023-05-29T01:10:31.618Z,930.00
2023-05-29T01:11:31.734Z,915.00
2023-05-29T01:12:31.808Z,899.00
2023-05-29T01:13:31.803Z,891.00
2023-05-29T01:14:31.791Z,918.00
2023-05-29T01:15:31.820Z,920.00
2023-05-29T01:16:31.831Z,907.00
2023-05-29T01:17:31.792Z,894.00
2023-05-29T01:18:31.873Z,897.00
2023-05-29T01:19:31.892Z,892.00
2023-05-29T01:20:31.932Z,878.00
2023-05-29T01:21:31.897Z,863.00
2023-05-29T01:22:31.892Z,812.00
2023-05-29T01:23:31.871Z,811.00
2023-05-29T01:24:31.952Z,803.00
2023-05-29T01:25:31.975Z,817.00
2023-05-29T01:26:31.946Z,844.00
2023-05-29T01:27:31.988Z,847.00
2023-05-29T01:28:31.977Z,834.00
2023-05-29T01:29:31.976Z,831.00
2023-05-29T01:30:32.042Z,808.00
2023-05-29T01:31:32.181Z,814.00
2023-05-29T01:32:32.184Z,820.00
2023-05-29T01:33:32.150Z,832.00
2023-05-29T01:34:32.133Z,830.00
2023-05-29T01:35:32.141Z,839.00
2023-05-29T01:36:32.186Z,850.00
2023-05-29T01:37:32.170Z,870.00
2023-05-29T01:38:32.168Z,872.00
2023-05-29T01:39:32.149Z,896.00
2023-05-29T01:40:32.161Z,909.00
2023-05-29T01:41:32.172Z,938.00
2023-05-29T01:42:32.246Z,952.00
2023-05-29T01:43:32.326Z,948.00
2023-05-29T01:44:32.351Z,954.00
2023-05-29T01:45:32.322Z,965.00
2023-05-29T01:46:32.342Z,955.00
2023-05-29T01:47:32.335Z,947.00
2023-05-29T01:48:32.352Z,940.00
2023-05-29T01:49:32.352Z,945.00
2023-05-29T01:50:32.326Z,976.00
2023-05-29T01:51:32.334Z,931.00
2023-05-29T01:52:32.327Z,929.00
2023-05-29T01:53:32.335Z,926.00
2023-05-29T01:54:32.460Z,926.00
2023-05-29T01:55:32.504Z,921.00
2023-05-29T01:56:32.504Z,920.00
2023-05-29T01:57:32.507Z,948.00
2023-05-29T01:58:32.574Z,975.00
2023-05-29T01:59:32.520Z,970.00
2023-05-29T02:00:32.519Z,982.00
2023-05-29T02:01:32.683Z,973.00
2023-05-29T02:02:32.737Z,974.00
2023-05-29T02:03:32.677Z,978.00
2023-05-29T02:04:32.707Z,1042.00
2023-05-29T02:05:32.643Z,1067.00
2023-05-29T02:06:32.768Z,1084.00
2023-05-29T02:07:32.835Z,1103.00
2023-05-29T02:08:32.955Z,1123.00
2023-05-29T02:09:32.962Z,1145.00
2023-05-29T02:10:32.951Z,1176.00
2023-05-29T02:11:32.948Z,1222.00
2023-05-29T02:12:32.970Z,1229.00
2023-05-29T02:13:33.007Z,1256.00
2023-05-29T02:14:32.990Z,1281.00
2023-05-29T02:15:33.009Z,1287.00
2023-05-29T02:16:33.083Z,1315.00
2023-05-29T02:17:33.055Z,1326.00
2023-05-29T02:18:33.022Z,1345.00
2023-05-29T02:19:33.116Z,1373.00
2023-05-29T02:20:33.154Z,1382.00
2023-05-29T02:21:33.109Z,1401.00
2023-05-29T02:22:33.116Z,1413.00
2023-05-29T02:23:33.119Z,1425.00
2023-05-29T02:24:33.135Z,1412.00
2023-05-29T02:25:33.239Z,1431.00
2023-05-29T02:26:33.226Z,1410.00
2023-05-29T02:27:33.264Z,1418.00
2023-05-29T02:28:33.270Z,1430.00
2023-05-29T02:29:33.258Z,1437.00
2023-05-29T02:30:33.287Z,1409.00
2023-05-29T02:31:33.381Z,1435.00
2023-05-29T02:32:33.367Z,1395.00
2023-05-29T02:33:33.364Z,1408.00
2023-05-29T02:34:33.384Z,1385.00
2023-05-29T02:35:33.380Z,1369.00
2023-05-29T02:36:33.398Z,1362.00
2023-05-29T02:37:33.420Z,1360.00
2023-05-29T02:38:33.440Z,1339.00
2023-05-29T02:39:33.468Z,1370.00
2023-05-29T02:40:33.509Z,1321.00
2023-05-29T02:41:33.454Z,1334.00
2023-05-29T02:42:33.533Z,1328.00
2023-05-29T02:43:33.530Z,1341.00
2023-05-29T02:44:33.566Z,1338.00
2023-05-29T02:45:33.550Z,1350.00
2023-05-29T02:46:33.571Z,1355.00
2023-05-29T02:47:33.589Z,1360.00
2023-05-29T02:48:33.653Z,1345.00
2023-05-29T02:49:33.738Z,1362.00
2023-05-29T02:50:33.867Z,1357.00
2023-05-29T02:51:33.806Z,1369.00
2023-05-29T02:52:33.801Z,1365.00
2023-05-29T02:53:33.815Z,1399.00
2023-05-29T02:54:33.878Z,1373.00
2023-05-29T02:55:33.889Z,1392.00
2023-05-29T02:56:33.911Z,1411.00
2023-05-29T02:57:33.919Z,1407.00
2023-05-29T02:58:33.932Z,1425.00
2023-05-29T02:59:33.958Z,1437.00
2023-05-29T03:00:34.041Z,1441.00
2023-05-29T03:01:34.779Z,1458.00
2023-05-29T03:02:34.292Z,1466.00
2023-05-29T03:03:34.352Z,1479.00
2023-05-29T03:04:34.174Z,1510.00
2023-05-29T03:05:34.214Z,1527.00
2023-05-29T03:06:34.238Z,1542.00
2023-05-29T03:07:34.245Z,1542.00
2023-05-29T03:08:34.258Z,1556.00
2023-05-29T03:09:34.269Z,1549.00
2023-05-29T03:10:34.359Z,1577.00
2023-05-29T03:11:34.385Z,1573.00
2023-05-29T03:12:34.373Z,1572.00
2023-05-29T03:13:34.405Z,1563.00
2023-05-29T03:14:34.407Z,1578.00
2023-05-29T03:15:34.413Z,1566.00
2023-05-29T03:16:34.511Z,1529.00
2023-05-29T03:17:34.466Z,1532.00
2023-05-29T03:18:34.443Z,1538.00
2023-05-29T03:19:34.433Z,1536.00
2023-05-29T03:20:34.539Z,1575.00
2023-05-29T03:21:34.482Z,1546.00
2023-05-29T03:22:34.525Z,1526.00
2023-05-29T03:23:34.505Z,1515.00
2023-05-29T03:24:34.561Z,1521.00
2023-05-29T03:25:34.571Z,1527.00
2023-05-29T03:26:34.589Z,1511.00
2023-05-29T03:27:34.596Z,1515.00
2023-05-29T03:28:34.606Z,1527.00
2023-05-29T03:29:34.616Z,1516.00
2023-05-29T03:30:34.623Z,1531.00
2023-05-29T03:31:34.711Z,1519.00
2023-05-29T03:32:34.693Z,1497.00
2023-05-29T03:33:34.679Z,1487.00
2023-05-29T03:34:34.768Z,1493.00
2023-05-29T03:35:34.746Z,1487.00
2023-05-29T03:36:34.739Z,1478.00
2023-05-29T03:37:34.759Z,1469.00
2023-05-29T03:38:34.815Z,1447.00
2023-05-29T03:39:34.803Z,1474.00
2023-05-29T03:40:34.818Z,1484.00
2023-05-29T03:41:34.839Z,1502.00
2023-05-29T03:42:34.851Z,1493.00
2023-05-29T03:43:34.865Z,1486.00
2023-05-29T03:44:34.892Z,1497.00
2023-05-29T03:45:34.934Z,1500.00
2023-05-29T03:46:34.960Z,1491.00
2023-05-29T03:47:34.985Z,1470.00
2023-05-29T03:48:34.976Z,1480.00
2023-05-29T03:49:35.000Z,1494.00
2023-05-29T03:50:34.989Z,1513.00
2023-05-29T03:51:35.001Z,1515.00
2023-05-29T03:52:35.026Z,1514.00
2023-05-29T03:53:35.083Z,1501.00
2023-05-29T03:54:35.080Z,1507.00
2023-05-29T03:55:35.086Z,1517.00
2023-05-29T03:56:35.078Z,1506.00
2023-05-29T03:57:35.105Z,1521.00
2023-05-29T03:58:35.152Z,1546.00
2023-05-29T03:59:35.142Z,1557.00
2023-05-29T04:00:35.175Z,1553.00
2023-05-29T04:01:35.161Z,1559.00
2023-05-29T04:02:35.233Z,1556.00
2023-05-29T04:03:35.258Z,1555.00
2023-05-29T04:04:35.214Z,1544.00
2023-05-29T04:05:35.231Z,1526.00
2023-05-29T04:06:35.228Z,1538.00
2023-05-29T04:07:35.241Z,1530.00
2023-05-29T04:08:35.266Z,1556.00
2023-05-29T04:09:35.273Z,1550.00
2023-05-29T04:10:35.302Z,1560.00
2023-05-29T04:11:35.307Z,1556.00
2023-05-29T04:12:35.326Z,1574.00
2023-05-29T04:13:35.376Z,1578.00
2023-05-29T04:14:35.370Z,1565.00
2023-05-29T04:15:35.375Z,1571.00
2023-05-29T04:16:35.401Z,1581.00
2023-05-29T04:17:35.488Z,1599.00
2023-05-29T04:18:35.434Z,1597.00
2023-05-29T04:19:35.447Z,1579.00
2023-05-29T04:20:35.462Z,1581.00
2023-05-29T04:21:35.446Z,1594.00
2023-05-29T04:22:35.489Z,1595.00
2023-05-29T04:23:35.480Z,1591.00
2023-05-29T04:24:35.493Z,1599.00
2023-05-29T04:25:35.562Z,1610.00
2023-05-29T04:26:35.520Z,1609.00
2023-05-29T04:27:35.539Z,1624.00
2023-05-29T04:28:35.552Z,1633.00
2023-05-29T04:29:35.540Z,1644.00
2023-05-29T04:30:35.627Z,1641.00
2023-05-29T04:31:35.643Z,1623.00
2023-05-29T04:32:35.697Z,1642.00
2023-05-29T04:33:35.659Z,1652.00
2023-05-29T04:34:35.672Z,1627.00
2023-05-29T04:35:35.697Z,1624.00
2023-05-29T04:36:35.711Z,1632.00
2023-05-29T04:37:35.719Z,1642.00
2023-05-29T04:38:35.752Z,1644.00
2023-05-29T04:39:35.825Z,1652.00
2023-05-29T04:40:35.849Z,1661.00
2023-05-29T04:41:35.844Z,1675.00
2023-05-29T04:42:35.868Z,1674.00
2023-05-29T04:43:35.875Z,1674.00
2023-05-29T04:44:35.874Z,1681.00
2023-05-29T04:45:35.989Z,1695.00
2023-05-29T04:46:36.074Z,1697.00
2023-05-29T04:47:36.027Z,1684.00
2023-05-29T04:48:35.994Z,1686.00
2023-05-29T04:49:37.417Z,1694.00
2023-05-29T04:50:35.989Z,1693.00
2023-05-29T04:51:35.974Z,1661.00
2023-05-29T04:52:36.003Z,1683.00
2023-05-29T04:53:35.973Z,1691.00
2023-05-29T04:54:35.993Z,1679.00
2023-05-29T04:55:35.960Z,1682.00
2023-05-29T04:56:35.950Z,1685.00
2023-05-29T04:57:35.957Z,1677.00
2023-05-29T04:58:35.923Z,1678.00
2023-05-29T04:59:35.938Z,1686.00
2023-05-29T05:00:35.933Z,1680.00
2023-05-29T05:01:35.987Z,1641.00
2023-05-29T05:02:35.951Z,1687.00
2023-05-29T05:03:35.945Z,1709.00
2023-05-29T05:04:35.939Z,1714.00
2023-05-29T05:05:35.889Z,1734.00
2023-05-29T05:06:35.863Z,1766.00
2023-05-29T05:07:35.888Z,1779.00
2023-05-29T05:08:35.876Z,1764.00
2023-05-29T05:09:35.844Z,1749.00
2023-05-29T05:10:35.833Z,1788.00
2023-05-29T05:11:35.853Z,1801.00
2023-05-29T05:12:35.830Z,1812.00
2023-05-29T05:13:35.826Z,1825.00
2023-05-29T05:14:35.841Z,1824.00
2023-05-29T05:15:35.830Z,1809.00
2023-05-29T05:16:35.862Z,1823.00
2023-05-29T05:17:35.852Z,1832.00
2023-05-29T05:18:35.793Z,1825.00
2023-05-29T05:19:35.796Z,1824.00
2023-05-29T05:20:35.806Z,1842.00
2023-05-29T05:21:35.756Z,1748.00
2023-05-29T05:22:35.763Z,1764.00
2023-05-29T05:23:49.015Z,1710.00
2023-05-29T05:24:36.751Z,1711.00
2023-05-29T05:25:35.753Z,1695.00
2023-05-29T05:26:35.743Z,1674.00
2023-05-29T05:27:35.732Z,1642.00
2023-05-29T05:28:35.718Z,1637.00
2023-05-29T05:29:35.716Z,1650.00
2023-05-29T05:30:35.702Z,1630.00
2023-05-29T05:31:35.732Z,1631.00
2023-05-29T05:32:35.776Z,1632.00
2023-05-29T05:33:35.778Z,1626.00
2023-05-29T05:34:35.829Z,1668.00
2023-05-29T05:35:35.898Z,1667.00
2023-05-29T05:36:36.019Z,1640.00
2023-05-29T05:37:36.000Z,1671.00
2023-05-29T05:38:36.056Z,1670.00
2023-05-29T05:39:36.101Z,1657.00
2023-05-29T05:40:36.167Z,1695.00
2023-05-29T05:41:36.283Z,1671.00
2023-05-29T05:42:36.275Z,1666.00
2023-05-29T05:43:36.317Z,1639.00
2023-05-29T05:44:36.367Z,1649.00
2023-05-29T05:45:36.446Z,1618.00
2023-05-29T05:46:36.568Z,1692.00
2023-05-29T05:47:36.535Z,1726.00
2023-05-29T05:48:36.554Z,1759.00
2023-05-29T05:49:36.592Z,1753.00
2023-05-29T05:50:36.671Z,1764.00
2023-05-29T05:51:36.725Z,1750.00
2023-05-29T05:52:36.899Z,1730.00
2023-05-29T05:53:36.732Z,1750.00
2023-05-29T05:54:36.775Z,1721.00
2023-05-29T05:55:36.781Z,1705.00
2023-05-29T05:56:36.833Z,1690.00
2023-05-29T05:57:36.890Z,1668.00
2023-05-29T05:58:36.880Z,1698.00
2023-05-29T05:59:36.908Z,1670.00
2023-05-29T06:00:36.929Z,1695.00
2023-05-29T06:01:36.975Z,1683.00
2023-05-29T06:02:37.112Z,1691.00
2023-05-29T06:03:37.176Z,1663.00
2023-05-29T06:04:37.086Z,1665.00
2023-05-29T06:05:37.065Z,1636.00
2023-05-29T06:06:37.079Z,1650.00
2023-05-29T06:07:38.858Z,1647.00
2023-05-29T06:08:37.131Z,1637.00
2023-05-29T06:09:37.120Z,1647.00
2023-05-29T06:10:37.148Z,1623.00
2023-05-29T06:11:37.173Z,1622.00
2023-05-29T06:12:37.178Z,1638.00
2023-05-29T06:13:37.205Z,1640.00
2023-05-29T06:14:37.196Z,1604.00
2023-05-29T06:15:37.246Z,1597.00
2023-05-29T06:16:37.245Z,1610.00
2023-05-29T06:17:37.251Z,1611.00
2023-05-29T06:18:37.307Z,1610.00
2023-05-29T06:19:37.247Z,1629.00
2023-05-29T06:20:37.295Z,1592.00
2023-05-29T06:21:37.282Z,1584.00
2023-05-29T06:22:37.272Z,1609.00
2023-05-29T06:23:37.362Z,1586.00
2023-05-29T06:24:37.305Z,1555.00
2023-05-29T06:25:37.354Z,1558.00
2023-05-29T06:26:37.404Z,1591.00
2023-05-29T06:27:37.337Z,1590.00
2023-05-29T06:28:37.347Z,1592.00
2023-05-29T06:29:37.343Z,1591.00
2023-05-29T06:30:37.349Z,1598.00
2023-05-29T06:31:37.396Z,1595.00
2023-05-29T06:32:37.389Z,1611.00
2023-05-29T06:33:37.349Z,1617.00
2023-05-29T06:34:37.384Z,1614.00
2023-05-29T06:35:37.407Z,1611.00
2023-05-29T06:36:37.428Z,1614.00
2023-05-29T06:37:37.419Z,1600.00
2023-05-29T06:38:37.423Z,1589.00
2023-05-29T06:39:37.409Z,1599.00
2023-05-29T06:40:37.474Z,1585.00
2023-05-29T06:41:37.499Z,1578.00
2023-05-29T06:42:37.527Z,1577.00
2023-05-29T06:43:37.538Z,1564.00
2023-05-29T06:44:37.543Z,1558.00
2023-05-29T06:45:37.606Z,1531.00
2023-05-29T06:46:37.748Z,1536.00
2023-05-29T06:47:37.719Z,1505.00
2023-05-29T06:48:37.759Z,1508.00
2023-05-29T06:49:37.820Z,1498.00
2023-05-29T06:50:37.859Z,1485.00
2023-05-29T06:51:37.930Z,1480.00
2023-05-29T06:52:37.991Z,1475.00
2023-05-29T06:53:38.035Z,1465.00
2023-05-29T06:54:38.100Z,1483.00
2023-05-29T06:55:38.135Z,1463.00
2023-05-29T06:56:38.217Z,1466.00
2023-05-29T06:57:38.289Z,1459.00
2023-05-29T06:58:38.321Z,1463.00
2023-05-29T06:59:38.403Z,1454.00
2023-05-29T07:00:38.536Z,1457.00
2023-05-29T07:01:38.488Z,1443.00
2023-05-29T07:02:38.560Z,1452.00
2023-05-29T07:03:38.701Z,1409.00
2023-05-29T07:04:38.611Z,1438.00
2023-05-29T07:05:38.611Z,1447.00
2023-05-29T07:06:38.635Z,1441.00
2023-05-29T07:07:38.633Z,1472.00
2023-05-29T07:08:38.680Z,1485.00
2023-05-29T07:09:38.699Z,1508.00
2023-05-29T07:10:38.733Z,1525.00
2023-05-29T07:11:38.753Z,1513.00
2023-05-29T07:12:38.781Z,1501.00
2023-05-29T07:13:38.790Z,1499.00
2023-05-29T07:14:38.818Z,1497.00
2023-05-29T07:15:38.852Z,1499.00
2023-05-29T07:16:38.954Z,1503.00
2023-05-29T07:17:39.000Z,1496.00
2023-05-29T07:18:39.020Z,1500.00
2023-05-29T07:19:39.077Z,1506.00
2023-05-29T07:20:39.320Z,1515.00
2023-05-29T07:21:39.172Z,1508.00
2023-05-29T07:22:39.234Z,1501.00
2023-05-29T07:23:39.280Z,1507.00
2023-05-29T07:24:39.348Z,1525.00
2023-05-29T07:25:39.373Z,1513.00
2023-05-29T07:27:39.502Z,1478.00
2023-05-29T07:28:39.512Z,1460.00
2023-05-29T07:29:39.547Z,1445.00
2023-05-29T07:30:39.601Z,1449.00
2023-05-29T07:31:39.695Z,1470.00
2023-05-29T07:32:39.719Z,1441.00
2023-05-29T07:33:39.733Z,1446.00
2023-05-29T07:34:39.771Z,1444.00
2023-05-29T07:35:39.873Z,1432.00
2023-05-29T07:36:39.867Z,1415.00
2023-05-29T07:37:39.877Z,1398.00
2023-05-29T07:38:39.931Z,1393.00
2023-05-29T07:39:39.956Z,1389.00
2023-05-29T07:40:42.320Z,1383.00
2023-05-29T07:41:39.994Z,1375.00
2023-05-29T07:42:40.008Z,1393.00
2023-05-29T07:43:39.985Z,1384.00
2023-05-29T07:44:39.985Z,1385.00
2023-05-29T07:45:39.979Z,1377.00
2023-05-29T07:46:40.026Z,1381.00
2023-05-29T07:47:40.019Z,1361.00
2023-05-29T07:48:39.973Z,1352.00
2023-05-29T07:49:39.950Z,1330.00
2023-05-29T07:50:39.947Z,1331.00
2023-05-29T07:51:39.929Z,1326.00
2023-05-29T07:52:39.915Z,1328.00
2023-05-29T07:53:39.917Z,1298.00
2023-05-29T07:54:39.922Z,1315.00
2023-05-29T07:55:39.900Z,1305.00
2023-05-29T07:56:39.885Z,1286.00
2023-05-29T07:57:39.906Z,1269.00
2023-05-29T07:58:39.900Z,1266.00
2023-05-29T07:59:39.885Z,1245.00
2023-05-29T08:00:39.874Z,1240.00
2023-05-29T08:01:39.850Z,1225.00
2023-05-29T08:02:39.966Z,1229.00
2023-05-29T08:03:39.951Z,1237.00
2023-05-29T08:04:39.882Z,1209.00
2023-05-29T08:05:39.837Z,1223.00
2023-05-29T08:06:39.815Z,1227.00
2023-05-29T08:07:39.838Z,1191.00
2023-05-29T08:08:39.822Z,1173.00
2023-05-29T08:09:39.813Z,1186.00
2023-05-29T08:10:39.801Z,1189.00
2023-05-29T08:11:39.800Z,1176.00
2023-05-29T08:12:39.790Z,1175.00
2023-05-29T08:13:39.802Z,1172.00
2023-05-29T08:14:39.788Z,1155.00
2023-05-29T08:15:39.777Z,1142.00
2023-05-29T08:16:39.797Z,1130.00
2023-05-29T08:17:39.754Z,1130.00
2023-05-29T08:18:39.739Z,1124.00
2023-05-29T08:19:39.736Z,1125.00
2023-05-29T08:20:39.745Z,1130.00
2023-05-29T08:21:39.729Z,1117.00
2023-05-29T08:22:39.708Z,1133.00
2023-05-29T08:23:39.733Z,1159.00
2023-05-29T08:24:39.708Z,1167.00
2023-05-29T08:25:39.680Z,1153.00
2023-05-29T08:26:39.688Z,1156.00
2023-05-29T08:27:39.681Z,1152.00
2023-05-29T08:28:42.305Z,1125.00
2023-05-29T08:29:39.672Z,1126.00
2023-05-29T08:30:39.674Z,1128.00
2023-05-29T08:31:39.739Z,1135.00
2023-05-29T08:32:39.676Z,1159.00
2023-05-29T08:33:39.693Z,1165.00
2023-05-29T08:34:39.625Z,1153.00
2023-05-29T08:35:39.649Z,1146.00
2023-05-29T08:36:39.629Z,1151.00
2023-05-29T08:37:39.625Z,1147.00
2023-05-29T08:38:39.614Z,1146.00
2023-05-29T08:39:39.605Z,1145.00
2023-05-29T08:40:39.583Z,1161.00
2023-05-29T08:41:39.612Z,1136.00
2023-05-29T08:42:39.576Z,1130.00
2023-05-29T08:43:39.628Z,1134.00
2023-05-29T08:44:39.576Z,1118.00
2023-05-29T08:45:39.583Z,1115.00
2023-05-29T08:46:39.547Z,1123.00
2023-05-29T08:47:39.588Z,1095.00
2023-05-29T08:48:39.540Z,1098.00
2023-05-29T08:49:39.556Z,1089.00
2023-05-29T08:50:39.538Z,1096.00
2023-05-29T08:51:39.528Z,1087.00
2023-05-29T08:52:39.576Z,1087.00
2023-05-29T08:53:39.547Z,1097.00
2023-05-29T08:54:39.511Z,1106.00
2023-05-29T08:55:39.500Z,1097.00
2023-05-29T08:56:39.492Z,1083.00
2023-05-29T08:57:39.955Z,1075.00
2023-05-29T08:58:39.526Z,1057.00
2023-05-29T08:59:39.466Z,1038.00
2023-05-29T09:00:39.457Z,1020.00
2023-05-29T09:01:39.479Z,1035.00
2023-05-29T09:02:39.442Z,1002.00
2023-05-29T09:03:39.504Z,999.00
2023-05-29T09:04:39.432Z,999.00
2023-05-29T09:05:39.423Z,987.00
2023-05-29T09:06:39.423Z,986.00
2023-05-29T09:07:39.405Z,975.00
2023-05-29T09:08:39.413Z,956.00
2023-05-29T09:09:39.395Z,956.00
2023-05-29T09:10:39.388Z,936.00
2023-05-29T09:11:39.383Z,977.00
2023-05-29T09:12:39.373Z,1006.00
2023-05-29T09:13:39.381Z,1008.00
2023-05-29T09:14:39.497Z,1020.00
2023-05-29T09:15:39.352Z,1022.00
2023-05-29T09:16:39.347Z,1032.00
2023-05-29T09:17:39.350Z,1013.00
2023-05-29T09:18:39.330Z,1013.00
2023-05-29T09:19:39.324Z,1044.00
2023-05-29T09:20:39.335Z,1070.00
2023-05-29T09:21:39.300Z,1046.00
2023-05-29T09:22:39.293Z,1066.00
2023-05-29T09:23:39.334Z,1031.00
2023-05-29T09:24:39.270Z,1005.00
2023-05-29T09:25:39.263Z,1070.00
2023-05-29T09:26:39.288Z,1086.00
2023-05-29T09:27:39.250Z,1041.00
2023-05-29T09:28:39.249Z,1066.00
2023-05-29T09:29:39.247Z,1032.00
2023-05-29T09:30:39.321Z,1054.00
2023-05-29T09:31:39.248Z,1034.00
2023-05-29T09:32:39.225Z,1056.00
2023-05-29T09:33:39.207Z,1093.00
2023-05-29T09:34:39.223Z,1086.00
2023-05-29T09:35:39.223Z,1024.00
2023-05-29T09:36:39.200Z,1003.00
2023-05-29T09:37:39.191Z,1011.00
2023-05-29T09:39:40.189Z,847.00
2023-05-29T09:40:39.154Z,802.00
2023-05-29T09:41:39.154Z,674.00
2023-05-29T09:42:39.135Z,619.00
2023-05-29T09:43:39.141Z,614.00
2023-05-29T09:44:39.132Z,713.00
2023-05-29T09:45:39.113Z,711.00
2023-05-29T09:46:39.185Z,695.00
2023-05-29T09:47:39.150Z,646.00
2023-05-29T09:48:39.104Z,637.00
2023-05-29T09:49:39.089Z,621.00
2023-05-29T09:50:39.102Z,564.00
2023-05-29T09:51:39.101Z,537.00
2023-05-29T09:52:39.088Z,599.00
2023-05-29T09:53:39.139Z,633.00
2023-05-29T09:54:39.192Z,589.00
2023-05-29T09:55:39.223Z,540.00
2023-05-29T09:56:39.251Z,550.00
2023-05-29T09:57:39.309Z,544.00
2023-05-29T09:58:39.349Z,562.00
2023-05-29T09:59:39.374Z,596.00
2023-05-29T10:00:39.439Z,540.00
2023-05-29T10:01:39.478Z,528.00
2023-05-29T10:02:39.543Z,552.00
2023-05-29T10:03:39.588Z,538.00
2023-05-29T10:04:39.651Z,528.00
2023-05-29T10:05:39.630Z,500.00
2023-05-29T10:06:39.665Z,521.00
2023-05-29T10:07:39.719Z,506.00
2023-05-29T10:08:39.765Z,508.00
2023-05-29T10:09:39.806Z,524.00
2023-05-29T10:10:39.844Z,529.00
2023-05-29T10:11:39.867Z,505.00
2023-05-29T10:12:39.923Z,527.00
2023-05-29T10:13:39.978Z,500.00
2023-05-29T10:14:39.989Z,479.00
2023-05-29T10:15:40.024Z,510.00
2023-05-29T10:16:40.128Z,532.00
2023-05-29T10:17:40.168Z,552.00
2023-05-29T10:18:40.156Z,539.00
2023-05-29T10:19:40.217Z,508.00
2023-05-29T10:20:40.268Z,515.00
2023-05-29T10:21:40.285Z,497.00
2023-05-29T10:22:40.312Z,526.00
2023-05-29T10:23:40.383Z,499.00
2023-05-29T10:24:40.405Z,500.00
2023-05-29T10:25:40.457Z,520.00
2023-05-29T10:26:40.501Z,517.00
2023-05-29T10:27:40.536Z,515.00
2023-05-29T10:28:40.583Z,513.00
2023-05-29T10:29:40.645Z,505.00
2023-05-29T10:30:40.661Z,500.00
2023-05-29T10:31:40.760Z,501.00
2023-05-29T10:32:40.778Z,500.00
2023-05-29T10:33:40.818Z,502.00
2023-05-29T10:34:40.879Z,503.00
2023-05-29T10:35:40.901Z,505.00
2023-05-29T10:36:40.914Z,506.00
2023-05-29T10:37:40.975Z,503.00
2023-05-29T10:38:40.993Z,498.00
2023-05-29T10:39:41.023Z,500.00
2023-05-29T10:40:41.098Z,503.00
2023-05-29T10:41:41.129Z,512.00
2023-05-29T10:42:41.158Z,528.00
2023-05-29T10:43:41.207Z,531.00
2023-05-29T10:44:41.271Z,519.00
2023-05-29T10:45:41.299Z,510.00
2023-05-29T10:46:41.388Z,500.00
2023-05-29T10:47:41.433Z,517.00
2023-05-29T10:48:41.459Z,518.00
2023-05-29T10:49:41.464Z,554.00
2023-05-29T10:50:41.552Z,532.00
2023-05-29T10:51:41.575Z,507.00
2023-05-29T10:52:41.635Z,526.00
2023-05-29T10:53:41.817Z,528.00
2023-05-29T10:54:41.708Z,550.00
2023-05-29T10:55:41.734Z,508.00
2023-05-29T10:56:41.802Z,500.00
2023-05-29T10:57:41.838Z,508.00
2023-05-29T10:58:41.878Z,551.00
2023-05-29T10:59:41.942Z,565.00
2023-05-29T11:00:41.987Z,512.00
2023-05-29T11:01:42.092Z,511.00
2023-05-29T11:02:42.120Z,530.00
2023-05-29T11:03:42.140Z,499.00
2023-05-29T11:04:42.154Z,500.00
2023-05-29T11:05:42.204Z,503.00
2023-05-29T11:06:42.245Z,522.00
2023-05-29T11:07:42.288Z,504.00
2023-05-29T11:08:42.370Z,512.00
2023-05-29T11:09:42.379Z,519.00
2023-05-29T11:10:42.441Z,495.00
2023-05-29T11:11:42.482Z,492.00
2023-05-29T11:12:42.514Z,518.00
2023-05-29T11:13:42.569Z,500.00
2023-05-29T11:14:42.612Z,511.00
2023-05-29T11:15:42.663Z,556.00
2023-05-29T11:16:42.716Z,540.00
2023-05-29T11:17:42.775Z,528.00
2023-05-29T11:18:42.883Z,544.00
2023-05-29T11:19:42.862Z,551.00
2023-05-29T11:20:42.917Z,554.00
2023-05-29T11:21:42.984Z,527.00
2023-05-29T11:22:43.014Z,496.00
2023-05-29T11:23:43.059Z,527.00
2023-05-29T11:24:43.109Z,501.00
2023-05-29T11:25:43.163Z,510.00
2023-05-29T11:26:43.204Z,528.00
2023-05-29T11:27:43.276Z,503.00
2023-05-29T11:28:43.319Z,551.00
2023-05-29T11:29:43.379Z,606.00
2023-05-29T11:30:43.397Z,598.00
2023-05-29T11:31:43.502Z,500.00
2023-05-29T11:32:43.551Z,503.00
2023-05-29T11:33:43.542Z,518.00
2023-05-29T11:34:43.586Z,554.00
2023-05-29T11:35:43.661Z,557.00
2023-05-29T11:36:43.715Z,585.00
2023-05-29T11:37:43.772Z,654.00
2023-05-29T11:38:43.821Z,585.00
2023-05-29T11:39:43.860Z,551.00
2023-05-29T11:40:43.928Z,542.00
2023-05-29T11:41:43.981Z,554.00
2023-05-29T11:42:44.034Z,557.00
2023-05-29T11:43:44.109Z,552.00
2023-05-29T11:44:44.152Z,569.00
2023-05-29T11:45:44.204Z,550.00
2023-05-29T11:46:44.238Z,615.00
2023-05-29T11:47:44.465Z,664.00
2023-05-29T11:48:44.387Z,654.00
2023-05-29T11:49:44.438Z,663.00
2023-05-29T11:50:44.473Z,773.00
2023-05-29T11:51:44.543Z,858.00
2023-05-29T11:52:44.573Z,929.00
2023-05-29T11:53:44.635Z,838.00
2023-05-29T11:54:44.682Z,886.00
2023-05-29T11:55:44.720Z,874.00
2023-05-29T11:56:44.795Z,992.00
2023-05-29T11:57:44.835Z,988.00
2023-05-29T11:58:44.887Z,952.00
2023-05-29T11:59:44.936Z,897.00
2023-05-29T12:00:44.992Z,848.00
2023-05-29T12:01:45.121Z,726.00
2023-05-29T12:02:45.226Z,703.00
2023-05-29T12:03:45.140Z,720.00
2023-05-29T12:04:45.204Z,769.00
2023-05-29T12:05:45.309Z,818.00
2023-05-29T12:06:45.290Z,822.00
2023-05-29T12:07:45.364Z,917.00
2023-05-29T12:08:45.410Z,916.00
2023-05-29T12:09:45.450Z,850.00
2023-05-29T12:10:45.495Z,825.00
2023-05-29T12:11:45.537Z,773.00
2023-05-29T12:12:45.612Z,823.00
2023-05-29T12:13:45.665Z,914.00
2023-05-29T12:14:45.731Z,796.00
2023-05-29T12:15:45.792Z,733.00